createdAt,value
2022-08-26T00:02:04.595Z,76.17
2022-08-26T00:04:34.115Z,76.83
2022-08-26T00:07:03.052Z,75.79
2022-08-26T00:09:33.848Z,75.95
2022-08-26T00:12:07.621Z,75.87
2022-08-26T00:14:36.862Z,75.98
2022-08-26T00:17:05.117Z,76.22
2022-08-26T00:19:37.781Z,76.07
2022-08-26T00:22:05.876Z,77.01
2022-08-26T00:24:33.716Z,74.75
2022-08-26T00:27:01.417Z,76.21
2022-08-26T00:29:31.929Z,75.33
2022-08-26T00:32:06.542Z,75.46
2022-08-26T00:34:37.696Z,76.47
2022-08-26T00:37:09.047Z,76.67
2022-08-26T00:39:40.133Z,77.09
2022-08-26T00:42:08.290Z,78.32
2022-08-26T00:44:36.323Z,77.09
2022-08-26T00:47:07.763Z,77.10
2022-08-26T00:49:40.954Z,76.31
2022-08-26T00:52:13.191Z,76.50
2022-08-26T00:54:48.722Z,76.39
2022-08-26T00:57:18.805Z,76.25
2022-08-26T00:59:48.558Z,75.92
2022-08-26T01:02:20.765Z,75.53
2022-08-26T01:04:55.539Z,75.21
2022-08-26T01:07:25.497Z,75.88
2022-08-26T01:09:53.326Z,75.30
2022-08-26T01:12:22.136Z,74.29
2022-08-26T01:14:50.430Z,74.63
2022-08-26T01:17:18.687Z,74.88
2022-08-26T01:19:48.661Z,74.72
2022-08-26T01:22:21.233Z,74.32
2022-08-26T01:24:56.133Z,74.92
2022-08-26T01:27:24.258Z,73.74
2022-08-26T01:29:52.565Z,73.88
2022-08-26T01:32:23.236Z,73.27
2022-08-26T01:34:51.260Z,73.10
2022-08-26T01:37:21.908Z,73.26
2022-08-26T01:39:54.109Z,74.11
2022-08-26T01:42:25.029Z,73.78
2022-08-26T01:44:55.135Z,73.66
2022-08-26T01:47:25.636Z,73.39
2022-08-26T01:49:55.640Z,73.62
2022-08-26T01:52:27.642Z,73.90
2022-08-26T01:54:57.057Z,73.57
2022-08-26T01:57:26.855Z,73.09
2022-08-26T01:59:56.896Z,74.06
2022-08-26T02:02:24.955Z,75.00
2022-08-26T02:04:55.645Z,74.87
2022-08-26T02:07:24.400Z,74.26
2022-08-26T02:09:56.783Z,74.81
2022-08-26T02:12:26.751Z,74.47
2022-08-26T02:14:56.756Z,74.13
2022-08-26T02:17:29.592Z,73.85
2022-08-26T02:19:58.892Z,73.49
2022-08-26T02:22:26.879Z,74.09
2022-08-26T02:24:59.237Z,73.92
2022-08-26T02:27:30.504Z,74.36
2022-08-26T02:30:06.235Z,73.87
2022-08-26T02:32:34.174Z,73.56
2022-08-26T02:35:05.270Z,73.99
2022-08-26T02:37:33.990Z,73.28
2022-08-26T02:40:04.071Z,73.49
2022-08-26T02:42:33.461Z,73.77
2022-08-26T02:45:02.999Z,73.51
2022-08-26T02:47:32.375Z,73.71
2022-08-26T02:50:00.934Z,73.94
2022-08-26T02:52:28.972Z,73.47
2022-08-26T02:54:56.699Z,73.68
2022-08-26T02:57:24.685Z,73.61
2022-08-26T02:59:53.724Z,74.21
2022-08-26T03:02:21.608Z,73.37
2022-08-26T03:04:58.164Z,73.06
2022-08-26T03:07:30.023Z,73.07
2022-08-26T03:09:58.711Z,73.08
2022-08-26T03:12:26.691Z,74.03
2022-08-26T03:14:56.171Z,73.88
2022-08-26T03:17:23.858Z,73.64
2022-08-26T03:19:57.260Z,73.78
2022-08-26T03:22:26.094Z,73.44
2022-08-26T03:24:55.110Z,74.20
2022-08-26T03:27:22.886Z,73.89
2022-08-26T03:30:08.168Z,73.92
2022-08-26T03:32:41.546Z,74.07
2022-08-26T03:35:10.091Z,74.21
2022-08-26T03:37:38.120Z,74.52
2022-08-26T03:40:08.837Z,74.23
2022-08-26T03:42:36.828Z,74.37
2022-08-26T03:45:05.372Z,73.68
2022-08-26T03:47:33.641Z,73.84
2022-08-26T03:50:03.404Z,73.68
2022-08-26T03:52:31.888Z,74.31
2022-08-26T03:54:59.603Z,73.88
2022-08-26T03:57:29.617Z,73.91
2022-08-26T03:59:58.972Z,73.92
2022-08-26T04:02:27.081Z,74.37
2022-08-26T04:04:54.824Z,74.27
2022-08-26T04:07:25.871Z,73.94
2022-08-26T04:09:55.964Z,73.99
2022-08-26T04:12:24.474Z,74.28
2022-08-26T04:14:52.428Z,73.72
2022-08-26T04:17:24.921Z,74.19
2022-08-26T04:19:53.790Z,74.61
2022-08-26T04:22:25.010Z,74.64
2022-08-26T04:24:54.569Z,74.46
2022-08-26T04:27:24.079Z,74.73
2022-08-26T04:29:55.310Z,74.86
2022-08-26T04:32:23.371Z,74.55
2022-08-26T04:34:51.231Z,74.52
2022-08-26T04:37:19.110Z,74.81
2022-08-26T04:39:51.891Z,75.05
2022-08-26T04:42:25.370Z,74.31
2022-08-26T04:44:53.921Z,75.05
2022-08-26T04:47:21.632Z,75.02
2022-08-26T04:49:49.377Z,76.22
2022-08-26T04:52:18.112Z,75.14
2022-08-26T04:54:45.901Z,75.67
2022-08-26T04:57:13.676Z,75.01
2022-08-26T04:59:44.708Z,74.92
2022-08-26T05:02:12.601Z,75.34
2022-08-26T05:04:43.331Z,76.21
2022-08-26T05:07:11.231Z,77.12
2022-08-26T05:09:40.922Z,76.70
2022-08-26T05:12:09.537Z,77.20
2022-08-26T05:14:37.349Z,78.72
2022-08-26T05:17:06.471Z,78.50
2022-08-26T05:19:34.533Z,78.79
2022-08-26T05:22:05.413Z,79.32
2022-08-26T05:24:33.086Z,80.40
2022-08-26T05:27:03.052Z,78.61
2022-08-26T05:29:35.231Z,79.84
2022-08-26T05:32:03.973Z,81.08
2022-08-26T05:34:34.074Z,82.13
2022-08-26T05:37:02.729Z,79.92
2022-08-26T05:39:32.752Z,80.10
2022-08-26T05:42:00.444Z,78.80
2022-08-26T05:44:29.897Z,79.03
2022-08-26T05:47:17.572Z,78.69
2022-08-26T05:49:51.380Z,78.48
2022-08-26T05:52:19.855Z,81.37
2022-08-26T05:54:47.860Z,82.62
2022-08-26T05:57:16.084Z,80.27
2022-08-26T05:59:46.330Z,81.77
2022-08-26T06:02:14.041Z,82.43
2022-08-26T06:04:42.043Z,85.72
2022-08-26T06:07:12.116Z,83.45
2022-08-26T06:09:41.404Z,83.98
2022-08-26T06:12:09.621Z,85.63
2022-08-26T06:14:37.487Z,85.40
2022-08-26T06:17:06.060Z,85.74
2022-08-26T06:19:37.217Z,85.50
2022-08-26T06:22:29.279Z,83.52
2022-08-26T06:25:15.789Z,83.30
2022-08-26T06:27:43.496Z,84.82
2022-08-26T06:30:12.573Z,83.55
2022-08-26T06:32:40.287Z,84.59
2022-08-26T06:35:12.192Z,83.64
2022-08-26T06:37:40.396Z,82.63
2022-08-26T06:40:11.725Z,83.13
2022-08-26T06:42:39.659Z,83.32
2022-08-26T06:45:08.452Z,82.88
2022-08-26T06:47:36.215Z,84.06
2022-08-26T06:50:04.692Z,85.49
2022-08-26T06:52:32.405Z,83.82
2022-08-26T06:55:00.123Z,83.48
2022-08-26T06:57:32.782Z,83.46
2022-08-26T07:00:07.176Z,83.83
2022-08-26T07:02:35.136Z,82.86
2022-08-26T07:05:05.505Z,83.83
2022-08-26T07:07:33.228Z,84.70
2022-08-26T07:10:00.939Z,83.22
2022-08-26T07:12:31.893Z,82.65
2022-08-26T07:14:59.621Z,82.32
2022-08-26T07:17:29.114Z,81.65
2022-08-26T07:19:57.432Z,81.20
2022-08-26T07:22:25.226Z,82.59
2022-08-26T07:24:52.905Z,82.70
2022-08-26T07:27:20.582Z,83.52
2022-08-26T07:29:50.556Z,82.95
2022-08-26T07:32:22.934Z,82.27
2022-08-26T07:34:50.829Z,82.56
2022-08-26T07:37:18.641Z,82.46
2022-08-26T07:39:48.155Z,82.39
2022-08-26T07:42:18.516Z,82.23
2022-08-26T07:44:46.327Z,83.33
2022-08-26T07:47:24.880Z,82.29
2022-08-26T07:49:54.764Z,82.30
2022-08-26T07:52:26.386Z,82.32
2022-08-26T07:54:54.924Z,81.80
2022-08-26T07:57:24.128Z,81.96
2022-08-26T07:59:52.409Z,80.60
2022-08-26T08:02:25.284Z,80.99
2022-08-26T08:04:54.398Z,80.57
2022-08-26T08:07:38.764Z,80.93
2022-08-26T08:10:11.585Z,79.99
2022-08-26T08:12:39.822Z,80.33
2022-08-26T08:15:08.899Z,81.47
2022-08-26T08:17:38.994Z,80.15
2022-08-26T08:20:09.125Z,78.60
2022-08-26T08:22:36.901Z,78.36
2022-08-26T08:25:06.354Z,77.63
2022-08-26T08:27:36.565Z,78.24
2022-08-26T08:30:05.439Z,77.89
2022-08-26T08:32:33.167Z,78.03
2022-08-26T08:35:10.742Z,77.44
2022-08-26T08:37:38.882Z,77.44
2022-08-26T08:40:08.542Z,77.22
2022-08-26T08:42:46.847Z,77.30
2022-08-26T08:45:18.396Z,76.74
2022-08-26T08:47:50.354Z,77.07
2022-08-26T08:50:24.185Z,76.49
2022-08-26T08:52:57.925Z,76.33
2022-08-26T08:55:46.176Z,75.45
2022-08-26T08:58:19.713Z,76.84
2022-08-26T09:00:52.901Z,77.34
2022-08-26T09:03:30.896Z,74.08
2022-08-26T09:06:01.374Z,75.33
2022-08-26T09:08:35.119Z,74.30
2022-08-26T09:11:04.725Z,74.13
2022-08-26T09:13:35.186Z,73.92
2022-08-26T09:16:08.202Z,74.19
2022-08-26T09:18:55.052Z,73.32
2022-08-26T09:21:26.008Z,73.50
2022-08-26T09:23:56.625Z,73.30
2022-08-26T09:26:29.185Z,72.94
2022-08-26T09:28:58.723Z,71.37
2022-08-26T09:31:28.656Z,71.81
2022-08-26T09:34:17.528Z,71.58
2022-08-26T09:36:48.487Z,71.97
2022-08-26T09:39:29.054Z,71.60
2022-08-26T09:42:09.433Z,70.94
2022-08-26T09:44:53.425Z,70.33
2022-08-26T09:47:23.379Z,70.76
2022-08-26T09:49:58.737Z,70.63
2022-08-26T09:52:27.915Z,70.30
2022-08-26T09:55:04.417Z,68.43
2022-08-26T09:57:33.783Z,66.67
2022-08-26T10:02:57.791Z,67.68
2022-08-26T10:05:32.269Z,67.34
2022-08-26T10:08:16.770Z,67.40
2022-08-26T10:10:46.100Z,67.20
2022-08-26T10:13:19.945Z,67.16
2022-08-26T10:15:58.135Z,68.26
2022-08-26T10:18:34.188Z,67.51
2022-08-26T10:21:06.329Z,66.77
2022-08-26T10:26:15.479Z,67.69
2022-08-26T10:28:47.740Z,67.01
2022-08-26T10:31:27.827Z,66.75
2022-08-26T10:34:00.081Z,67.10
2022-08-26T10:37:13.696Z,67.66
2022-08-26T10:39:46.384Z,67.27
2022-08-26T10:42:22.557Z,67.40
2022-08-26T10:44:53.999Z,66.52
2022-08-26T10:47:29.525Z,65.96
2022-08-26T10:50:03.003Z,66.17
2022-08-26T10:52:39.245Z,66.24
2022-08-26T10:55:13.596Z,65.65
2022-08-26T10:57:49.749Z,65.95
2022-08-26T11:00:38.220Z,65.85
2022-08-26T11:03:21.620Z,66.04
2022-08-26T11:06:21.421Z,65.03
2022-08-26T11:08:49.692Z,64.98
2022-08-26T11:11:45.249Z,63.14
2022-08-26T11:14:46.099Z,63.74
2022-08-26T11:17:55.241Z,63.56
2022-08-26T11:20:33.925Z,63.77
2022-08-26T11:23:35.381Z,63.65
2022-08-26T11:26:16.406Z,63.29
2022-08-26T11:29:04.320Z,63.50
2022-08-26T11:31:56.849Z,62.74
2022-08-26T11:34:53.970Z,62.38
2022-08-26T11:37:23.557Z,62.76
2022-08-26T11:39:57.250Z,62.35
2022-08-26T11:42:34.186Z,61.61
2022-08-26T11:45:05.413Z,61.86
2022-08-26T11:47:33.762Z,61.76
2022-08-26T11:50:13.048Z,62.72
2022-08-26T11:52:40.877Z,61.32
2022-08-26T11:55:11.504Z,61.42
2022-08-26T11:57:43.525Z,61.14
2022-08-26T12:00:22.223Z,62.05
2022-08-26T12:02:51.263Z,60.95
2022-08-26T12:05:24.795Z,60.62
2022-08-26T12:07:55.096Z,61.10
2022-08-26T12:10:29.711Z,60.45
2022-08-26T12:12:59.715Z,59.16
2022-08-26T12:15:30.053Z,58.80
2022-08-26T12:18:00.236Z,60.70
2022-08-26T12:20:45.809Z,59.99
2022-08-26T12:23:24.733Z,58.99
2022-08-26T12:25:53.580Z,60.16
2022-08-26T12:28:21.460Z,60.95
2022-08-26T12:31:02.976Z,59.87
2022-08-26T12:33:31.287Z,59.15
2022-08-26T12:36:03.964Z,59.03
2022-08-26T12:38:33.838Z,59.28
2022-08-26T12:41:03.475Z,58.86
2022-08-26T12:43:42.183Z,59.96
2022-08-26T12:46:12.642Z,59.35
2022-08-26T12:48:44.105Z,58.73
2022-08-26T12:51:27.688Z,58.54
2022-08-26T12:53:55.838Z,58.53
2022-08-26T12:56:28.505Z,58.49
2022-08-26T12:59:10.312Z,58.54
2022-08-26T13:01:44.112Z,58.97
2022-08-26T13:04:38.016Z,58.44
2022-08-26T13:07:21.183Z,58.20
2022-08-26T13:09:50.147Z,58.59
2022-08-26T13:12:25.732Z,57.94
2022-08-26T13:14:53.548Z,57.90
2022-08-26T13:17:22.632Z,58.21
2022-08-26T13:19:50.376Z,58.06
2022-08-26T13:22:20.243Z,58.37
2022-08-26T13:24:48.011Z,57.61
2022-08-26T13:27:17.843Z,58.01
2022-08-26T13:29:45.627Z,58.33
2022-08-26T13:32:13.548Z,58.55
2022-08-26T13:34:42.989Z,58.29
2022-08-26T13:37:10.747Z,58.21
2022-08-26T13:39:39.370Z,58.63
2022-08-26T13:42:07.416Z,58.33
2022-08-26T13:44:35.879Z,58.11
2022-08-26T13:47:03.670Z,57.55
2022-08-26T13:49:31.474Z,57.78
2022-08-26T13:52:01.955Z,57.71
2022-08-26T13:54:29.735Z,58.20
2022-08-26T13:56:57.483Z,57.90
2022-08-26T13:59:25.246Z,57.92
2022-08-26T14:01:53.059Z,56.78
2022-08-26T14:04:22.469Z,57.00
2022-08-26T14:06:55.147Z,56.77
2022-08-26T14:09:24.282Z,56.83
2022-08-26T14:11:54.479Z,56.96
2022-08-26T14:14:23.091Z,57.02
2022-08-26T14:16:58.648Z,57.21
2022-08-26T14:19:27.903Z,57.61
2022-08-26T14:21:56.048Z,58.08
2022-08-26T14:24:25.114Z,58.51
2022-08-26T14:26:52.956Z,58.82
2022-08-26T14:29:20.691Z,58.20
2022-08-26T14:31:48.494Z,58.52
2022-08-26T14:34:16.572Z,57.93
2022-08-26T14:36:44.321Z,58.36
2022-08-26T14:39:14.588Z,57.80
2022-08-26T14:41:45.836Z,58.10
2022-08-26T14:44:23.201Z,58.39
2022-08-26T14:46:52.744Z,59.46
2022-08-26T14:49:22.060Z,62.08
2022-08-26T14:51:49.962Z,64.84
2022-08-26T14:54:18.779Z,68.22
2022-08-26T14:56:50.165Z,70.91
2022-08-26T14:59:20.215Z,71.38
2022-08-26T15:01:48.130Z,72.99
2022-08-26T15:04:16.416Z,72.87
2022-08-26T15:06:44.231Z,75.97
2022-08-26T15:09:12.279Z,75.93
2022-08-26T15:11:41.197Z,75.93
2022-08-26T15:14:18.869Z,73.68
2022-08-26T15:16:48.029Z,71.30
2022-08-26T15:19:15.912Z,72.11
2022-08-26T15:21:45.298Z,72.22
2022-08-26T15:24:13.761Z,74.90
2022-08-26T15:26:41.783Z,76.44
2022-08-26T15:29:10.883Z,76.61
2022-08-26T15:31:38.679Z,75.61
2022-08-26T15:34:10.990Z,75.45
2022-08-26T15:36:42.664Z,77.32
2022-08-26T15:39:10.470Z,76.01
2022-08-26T15:41:38.757Z,75.61
2022-08-26T15:44:07.164Z,77.36
2022-08-26T15:46:37.528Z,78.08
2022-08-26T15:49:07.202Z,77.44
2022-08-26T15:51:45.967Z,77.14
2022-08-26T15:54:14.507Z,76.74
2022-08-26T15:56:43.429Z,74.91
2022-08-26T15:59:11.732Z,75.11
2022-08-26T16:01:41.249Z,76.58
2022-08-26T16:04:09.139Z,77.95
2022-08-26T16:06:38.874Z,78.57
2022-08-26T16:09:08.123Z,77.85
2022-08-26T16:11:37.295Z,80.56
2022-08-26T16:14:05.859Z,81.96
2022-08-26T16:16:33.778Z,83.53
2022-08-26T16:19:07.397Z,83.54
2022-08-26T16:21:36.152Z,84.16
2022-08-26T16:24:04.709Z,84.95
2022-08-26T16:26:36.155Z,83.66
2022-08-26T16:29:08.043Z,82.96
2022-08-26T16:31:37.174Z,82.04
2022-08-26T16:34:06.980Z,82.18
2022-08-26T16:36:35.482Z,82.74
2022-08-26T16:39:05.979Z,81.82
2022-08-26T16:41:35.047Z,82.44
2022-08-26T16:44:03.336Z,80.77
2022-08-26T16:46:31.168Z,80.49
2022-08-26T16:48:59.471Z,82.00
2022-08-26T16:51:29.654Z,80.09
2022-08-26T16:53:58.764Z,81.28
2022-08-26T16:56:33.935Z,80.95
2022-08-26T16:59:03.135Z,80.59
2022-08-26T17:01:31.087Z,79.72
2022-08-26T17:03:59.041Z,81.00
2022-08-26T17:06:28.188Z,78.98
2022-08-26T17:08:55.922Z,79.04
2022-08-26T17:11:23.731Z,79.33
2022-08-26T17:13:51.521Z,79.27
2022-08-26T17:16:22.234Z,79.25
2022-08-26T17:18:52.347Z,77.39
2022-08-26T17:21:20.192Z,77.87
2022-08-26T17:23:49.292Z,79.64
2022-08-26T17:26:16.988Z,78.85
2022-08-26T17:28:44.760Z,78.74
2022-08-26T17:31:13.747Z,78.62
2022-08-26T17:33:41.639Z,77.25
2022-08-26T17:36:10.423Z,78.46
2022-08-26T17:38:38.535Z,78.28
2022-08-26T17:41:09.832Z,77.42
2022-08-26T17:43:38.247Z,77.07
2022-08-26T17:46:08.149Z,75.80
2022-08-26T17:48:36.596Z,74.77
2022-08-26T17:51:08.237Z,75.06
2022-08-26T17:53:35.976Z,74.66
2022-08-26T17:56:08.909Z,74.82
2022-08-26T17:58:36.913Z,73.84
2022-08-26T18:01:06.126Z,74.36
2022-08-26T18:03:34.207Z,73.63
2022-08-26T18:06:02.077Z,75.04
2022-08-26T18:08:30.558Z,75.79
2022-08-26T18:10:58.956Z,75.47
2022-08-26T18:13:28.025Z,75.11
2022-08-26T18:15:55.794Z,74.66
2022-08-26T18:18:23.570Z,74.06
2022-08-26T18:20:51.993Z,74.84
2022-08-26T18:23:29.303Z,75.32
2022-08-26T18:25:59.357Z,74.05
2022-08-26T18:28:28.385Z,73.67
2022-08-26T18:30:57.041Z,73.71
2022-08-26T18:33:25.432Z,73.72
2022-08-26T18:35:53.567Z,74.30
2022-08-26T18:38:21.295Z,74.49
2022-08-26T18:40:50.208Z,74.22
2022-08-26T18:43:18.022Z,73.34
2022-08-26T18:45:47.498Z,73.52
2022-08-26T18:48:15.546Z,73.69
2022-08-26T18:50:47.316Z,73.73
2022-08-26T18:53:15.602Z,75.02
2022-08-26T18:55:43.311Z,76.39
2022-08-26T18:58:11.646Z,74.23
2022-08-26T19:00:39.551Z,73.89
2022-08-26T19:03:18.486Z,73.80
2022-08-26T19:05:46.892Z,74.06
2022-08-26T19:08:14.673Z,74.01
2022-08-26T19:10:42.761Z,74.58
2022-08-26T19:13:10.735Z,74.80
2022-08-26T19:15:39.832Z,74.86
2022-08-26T19:18:09.676Z,74.49
2022-08-26T19:20:43.488Z,74.59
2022-08-26T19:23:30.447Z,74.99
2022-08-26T19:25:59.986Z,74.99
2022-08-26T19:28:27.699Z,73.92
2022-08-26T19:30:55.517Z,73.80
2022-08-26T19:33:24.652Z,75.59
2022-08-26T19:35:52.655Z,75.18
2022-08-26T19:38:20.855Z,74.97
2022-08-26T19:40:48.603Z,74.81
2022-08-26T19:43:16.327Z,75.21
2022-08-26T19:45:44.647Z,75.34
2022-08-26T19:48:12.876Z,74.20
2022-08-26T19:50:42.476Z,74.47
2022-08-26T19:53:10.197Z,74.14
2022-08-26T19:55:38.564Z,73.99
2022-08-26T19:58:06.362Z,74.34
2022-08-26T20:00:35.606Z,75.12
2022-08-26T20:03:04.135Z,74.53
2022-08-26T20:05:31.937Z,74.79
2022-08-26T20:08:01.003Z,75.10
2022-08-26T20:10:28.888Z,75.77
2022-08-26T20:12:56.683Z,76.95
2022-08-26T20:15:24.828Z,75.47
2022-08-26T20:17:56.126Z,76.21
2022-08-26T20:20:42.035Z,74.98
2022-08-26T20:23:11.437Z,74.96
2022-08-26T20:25:39.307Z,75.30
2022-08-26T20:28:07.110Z,75.01
2022-08-26T20:30:34.899Z,74.60
2022-08-26T20:33:04.096Z,76.61
2022-08-26T20:35:31.850Z,76.67
2022-08-26T20:37:59.903Z,78.31
2022-08-26T20:40:29.387Z,77.75
2022-08-26T20:42:57.200Z,76.49
2022-08-26T20:45:25.952Z,78.28
2022-08-26T20:47:53.700Z,78.25
2022-08-26T20:50:21.504Z,78.63
2022-08-26T20:52:49.234Z,77.21
2022-08-26T20:55:17.132Z,77.40
2022-08-26T20:57:46.223Z,78.69
2022-08-26T21:00:16.424Z,78.71
2022-08-26T21:02:46.245Z,77.06
2022-08-26T21:05:14.099Z,78.20
2022-08-26T21:07:41.869Z,78.05
2022-08-26T21:10:11.065Z,77.51
2022-08-26T21:12:38.890Z,79.71
2022-08-26T21:15:09.177Z,77.90
2022-08-26T21:17:39.815Z,79.58
2022-08-26T21:20:08.645Z,78.42
2022-08-26T21:22:36.966Z,80.90
2022-08-26T21:25:05.191Z,79.99
2022-08-26T21:27:35.227Z,79.51
2022-08-26T21:30:05.774Z,79.62
2022-08-26T21:32:34.947Z,78.57
2022-08-26T21:35:04.787Z,81.71
2022-08-26T21:37:32.563Z,80.96
2022-08-26T21:40:03.158Z,79.58
2022-08-26T21:42:33.481Z,81.14
2022-08-26T21:45:03.080Z,79.58
2022-08-26T21:47:32.595Z,80.59
2022-08-26T21:50:03.513Z,80.98
2022-08-26T21:52:31.291Z,79.42
2022-08-26T21:55:00.339Z,79.19
2022-08-26T21:57:30.178Z,79.04
2022-08-26T21:59:58.232Z,79.20
2022-08-26T22:02:26.007Z,79.58
2022-08-26T22:04:53.916Z,78.64
2022-08-26T22:07:23.033Z,79.97
2022-08-26T22:09:50.834Z,78.74
2022-08-26T22:12:19.107Z,79.10
2022-08-26T22:14:47.001Z,79.61
2022-08-26T22:17:15.398Z,79.42
2022-08-26T22:19:46.083Z,80.18
2022-08-26T22:22:15.825Z,81.34
2022-08-26T22:24:44.991Z,80.79
2022-08-26T22:27:14.091Z,81.50
2022-08-26T22:29:41.874Z,80.46
2022-08-26T22:32:10.094Z,80.47
2022-08-26T22:34:37.969Z,79.58
2022-08-26T22:37:05.758Z,80.11
2022-08-26T22:39:33.624Z,81.38
2022-08-26T22:42:04.577Z,81.82
2022-08-26T22:44:32.943Z,80.56
2022-08-26T22:47:01.395Z,80.06
2022-08-26T22:49:29.664Z,80.06
2022-08-26T22:51:57.414Z,81.35
2022-08-26T22:54:25.958Z,82.72
2022-08-26T22:56:54.490Z,80.84
2022-08-26T22:59:23.629Z,81.36
2022-08-26T23:01:51.588Z,81.03
2022-08-26T23:04:20.038Z,82.26
2022-08-26T23:06:48.092Z,81.35
2022-08-26T23:09:17.849Z,84.00
2022-08-26T23:11:46.167Z,81.61
2022-08-26T23:14:14.039Z,84.83
2022-08-26T23:16:43.281Z,83.90
2022-08-26T23:19:12.627Z,85.69
2022-08-26T23:21:40.703Z,82.99
2022-08-26T23:24:09.607Z,86.39
2022-08-26T23:26:37.975Z,83.87
2022-08-26T23:29:07.259Z,82.32
2022-08-26T23:31:35.175Z,82.86
2022-08-26T23:34:23.535Z,85.22
2022-08-26T23:36:52.626Z,84.42
2022-08-26T23:39:21.686Z,84.39
2022-08-26T23:41:49.539Z,85.00
2022-08-26T23:44:17.296Z,86.90
2022-08-26T23:46:45.072Z,86.77
2022-08-26T23:49:14.193Z,86.75
2022-08-26T23:51:59.491Z,85.93
2022-08-26T23:54:27.303Z,86.07
2022-08-26T23:56:55.068Z,85.91
2022-08-26T23:59:22.811Z,86.18
